sensor_id;sensor_type;location;lat;lon;timestamp;P1;durP1;ratioP1;P2;durP2;ratioP2
65162;SDS011;51751;55.714;37.436;2023-05-29T00:00:21;3.80;;;2.00;;
65162;SDS011;51751;55.714;37.436;2023-05-29T00:02:48;3.10;;;1.80;;
65162;SDS011;51751;55.714;37.436;2023-05-29T00:05:14;3.20;;;1.90;;
65162;SDS011;51751;55.714;37.436;2023-05-29T00:07:41;5.85;;;1.90;;
65162;SDS011;51751;55.714;37.436;2023-05-29T00:10:07;3.75;;;1.80;;
65162;SDS011;51751;55.714;37.436;2023-05-29T00:12:34;7.50;;;1.80;;
65162;SDS011;51751;55.714;37.436;2023-05-29T00:15:00;2.45;;;1.90;;
65162;SDS011;51751;55.714;37.436;2023-05-29T00:17:32;5.05;;;2.13;;
65162;SDS011;51751;55.714;37.436;2023-05-29T00:19:58;3.97;;;2.13;;
65162;SDS011;51751;55.714;37.436;2023-05-29T00:22:30;5.50;;;2.35;;
65162;SDS011;51751;55.714;37.436;2023-05-29T00:24:56;2.47;;;1.70;;
65162;SDS011;51751;55.714;37.436;2023-05-29T00:27:22;3.97;;;1.90;;
65162;SDS011;51751;55.714;37.436;2023-05-29T00:29:48;5.47;;;1.45;;
65162;SDS011;51751;55.714;37.436;2023-05-29T00:32:14;5.15;;;2.13;;
65162;SDS011;51751;55.714;37.436;2023-05-29T00:34:39;3.70;;;1.60;;
65162;SDS011;51751;55.714;37.436;2023-05-29T00:37:06;4.75;;;1.85;;
65162;SDS011;51751;55.714;37.436;2023-05-29T00:39:32;4.28;;;1.80;;
65162;SDS011;51751;55.714;37.436;2023-05-29T00:41:58;6.40;;;1.90;;
65162;SDS011;51751;55.714;37.436;2023-05-29T00:44:24;3.35;;;1.60;;
65162;SDS011;51751;55.714;37.436;2023-05-29T00:46:51;4.28;;;1.60;;
65162;SDS011;51751;55.714;37.436;2023-05-29T00:49:18;3.03;;;1.58;;
65162;SDS011;51751;55.714;37.436;2023-05-29T00:51:46;2.40;;;1.70;;
65162;SDS011;51751;55.714;37.436;2023-05-29T00:54:13;3.13;;;1.90;;
65162;SDS011;51751;55.714;37.436;2023-05-29T00:56:40;4.00;;;2.03;;
65162;SDS011;51751;55.714;37.436;2023-05-29T00:59:09;4.40;;;1.83;;
65162;SDS011;51751;55.714;37.436;2023-05-29T01:01:37;3.22;;;2.10;;
65162;SDS011;51751;55.714;37.436;2023-05-29T01:04:03;6.82;;;2.22;;
65162;SDS011;51751;55.714;37.436;2023-05-29T01:07:07;3.20;;;1.90;;
65162;SDS011;51751;55.714;37.436;2023-05-29T01:09:35;3.42;;;1.73;;
65162;SDS011;51751;55.714;37.436;2023-05-29T01:23:07;4.65;;;2.20;;
65162;SDS011;51751;55.714;37.436;2023-05-29T01:25:46;3.33;;;2.10;;
65162;SDS011;51751;55.714;37.436;2023-05-29T01:28:25;3.22;;;1.90;;
65162;SDS011;51751;55.714;37.436;2023-05-29T01:30:53;4.28;;;1.80;;
65162;SDS011;51751;55.714;37.436;2023-05-29T01:33:20;2.58;;;1.70;;
65162;SDS011;51751;55.714;37.436;2023-05-29T01:35:50;4.15;;;1.88;;
65162;SDS011;51751;55.714;37.436;2023-05-29T01:38:16;4.15;;;2.10;;
65162;SDS011;51751;55.714;37.436;2023-05-29T01:40:43;4.32;;;2.17;;
65162;SDS011;51751;55.714;37.436;2023-05-29T01:43:10;4.10;;;1.98;;
65162;SDS011;51751;55.714;37.436;2023-05-29T01:45:37;5.30;;;1.90;;
65162;SDS011;51751;55.714;37.436;2023-05-29T01:48:03;2.90;;;1.77;;
65162;SDS011;51751;55.714;37.436;2023-05-29T01:50:30;6.63;;;1.90;;
65162;SDS011;51751;55.714;37.436;2023-05-29T01:52:56;2.53;;;1.73;;
65162;SDS011;51751;55.714;37.436;2023-05-29T01:55:22;6.22;;;1.95;;
65162;SDS011;51751;55.714;37.436;2023-05-29T01:57:51;1.70;;;1.60;;
65162;SDS011;51751;55.714;37.436;2023-05-29T02:00:17;6.63;;;1.70;;
65162;SDS011;51751;55.714;37.436;2023-05-29T02:02:46;4.50;;;1.98;;
65162;SDS011;51751;55.714;37.436;2023-05-29T02:05:14;3.63;;;1.85;;
65162;SDS011;51751;55.714;37.436;2023-05-29T02:07:40;2.40;;;1.60;;
65162;SDS011;51751;55.714;37.436;2023-05-29T02:10:07;4.53;;;1.80;;
65162;SDS011;51751;55.714;37.436;2023-05-29T02:12:34;6.05;;;2.30;;
65162;SDS011;51751;55.714;37.436;2023-05-29T02:15:01;7.90;;;2.47;;
65162;SDS011;51751;55.714;37.436;2023-05-29T02:17:32;7.35;;;3.28;;
65162;SDS011;51751;55.714;37.436;2023-05-29T02:20:00;7.10;;;2.80;;
65162;SDS011;51751;55.714;37.436;2023-05-29T02:22:31;9.38;;;3.33;;
65162;SDS011;51751;55.714;37.436;2023-05-29T02:25:00;8.15;;;3.17;;
65162;SDS011;51751;55.714;37.436;2023-05-29T02:27:26;8.60;;;2.78;;
65162;SDS011;51751;55.714;37.436;2023-05-29T02:29:52;9.27;;;3.13;;
65162;SDS011;51751;55.714;37.436;2023-05-29T02:32:21;6.72;;;3.33;;
65162;SDS011;51751;55.714;37.436;2023-05-29T02:34:48;5.47;;;2.40;;
65162;SDS011;51751;55.714;37.436;2023-05-29T02:37:15;11.25;;;3.30;;
65162;SDS011;51751;55.714;37.436;2023-05-29T02:39:41;12.52;;;3.53;;
65162;SDS011;51751;55.714;37.436;2023-05-29T02:42:07;5.80;;;2.78;;
65162;SDS011;51751;55.714;37.436;2023-05-29T02:44:34;6.78;;;2.30;;
65162;SDS011;51751;55.714;37.436;2023-05-29T02:47:03;10.07;;;2.40;;
65162;SDS011;51751;55.714;37.436;2023-05-29T02:49:29;9.68;;;2.55;;
65162;SDS011;51751;55.714;37.436;2023-05-29T02:51:58;3.58;;;2.00;;
65162;SDS011;51751;55.714;37.436;2023-05-29T02:54:24;6.15;;;2.60;;
65162;SDS011;51751;55.714;37.436;2023-05-29T02:56:51;7.40;;;2.85;;
65162;SDS011;51751;55.714;37.436;2023-05-29T02:59:20;4.57;;;2.03;;
65162;SDS011;51751;55.714;37.436;2023-05-29T03:02:05;4.43;;;1.88;;
65162;SDS011;51751;55.714;37.436;2023-05-29T03:04:31;3.60;;;1.73;;
65162;SDS011;51751;55.714;37.436;2023-05-29T03:06:57;5.78;;;1.80;;
65162;SDS011;51751;55.714;37.436;2023-05-29T03:09:22;5.18;;;1.65;;
65162;SDS011;51751;55.714;37.436;2023-05-29T03:11:49;2.90;;;1.63;;
65162;SDS011;51751;55.714;37.436;2023-05-29T03:14:16;3.33;;;1.80;;
65162;SDS011;51751;55.714;37.436;2023-05-29T03:16:45;4.22;;;1.70;;
65162;SDS011;51751;55.714;37.436;2023-05-29T03:19:11;5.93;;;1.90;;
65162;SDS011;51751;55.714;37.436;2023-05-29T03:21:37;5.10;;;1.60;;
65162;SDS011;51751;55.714;37.436;2023-05-29T03:24:03;2.83;;;1.40;;
65162;SDS011;51751;55.714;37.436;2023-05-29T03:26:31;6.25;;;1.70;;
65162;SDS011;51751;55.714;37.436;2023-05-29T03:28:57;6.55;;;1.80;;
65162;SDS011;51751;55.714;37.436;2023-05-29T03:31:23;2.25;;;1.63;;
65162;SDS011;51751;55.714;37.436;2023-05-29T03:33:49;3.97;;;1.58;;
65162;SDS011;51751;55.714;37.436;2023-05-29T03:36:25;9.10;;;1.77;;
65162;SDS011;51751;55.714;37.436;2023-05-29T03:38:52;4.40;;;1.67;;
65162;SDS011;51751;55.714;37.436;2023-05-29T03:41:19;4.63;;;1.70;;
65162;SDS011;51751;55.714;37.436;2023-05-29T03:43:45;2.53;;;1.50;;
65162;SDS011;51751;55.714;37.436;2023-05-29T03:46:12;1.95;;;1.40;;
65162;SDS011;51751;55.714;37.436;2023-05-29T03:48:38;9.43;;;1.80;;
65162;SDS011;51751;55.714;37.436;2023-05-29T03:51:05;5.03;;;1.80;;
65162;SDS011;51751;55.714;37.436;2023-05-29T03:53:35;4.95;;;1.60;;
65162;SDS011;51751;55.714;37.436;2023-05-29T03:56:04;8.48;;;2.05;;
65162;SDS011;51751;55.714;37.436;2023-05-29T03:58:36;6.72;;;2.05;;
65162;SDS011;51751;55.714;37.436;2023-05-29T04:01:02;4.80;;;1.95;;
65162;SDS011;51751;55.714;37.436;2023-05-29T04:03:30;5.65;;;2.28;;
65162;SDS011;51751;55.714;37.436;2023-05-29T04:05:57;9.70;;;1.70;;
65162;SDS011;51751;55.714;37.436;2023-05-29T04:08:23;3.65;;;1.98;;
65162;SDS011;51751;55.714;37.436;2023-05-29T04:10:49;3.78;;;1.70;;
65162;SDS011;51751;55.714;37.436;2023-05-29T04:13:23;3.97;;;1.48;;
65162;SDS011;51751;55.714;37.436;2023-05-29T04:15:49;5.63;;;1.90;;
65162;SDS011;51751;55.714;37.436;2023-05-29T04:18:19;3.85;;;1.80;;
65162;SDS011;51751;55.714;37.436;2023-05-29T04:20:45;3.78;;;1.90;;
65162;SDS011;51751;55.714;37.436;2023-05-29T04:23:13;4.53;;;1.83;;
65162;SDS011;51751;55.714;37.436;2023-05-29T04:25:39;8.88;;;2.53;;
65162;SDS011;51751;55.714;37.436;2023-05-29T04:28:10;5.28;;;1.83;;
65162;SDS011;51751;55.714;37.436;2023-05-29T04:30:38;9.85;;;1.80;;
65162;SDS011;51751;55.714;37.436;2023-05-29T04:33:24;4.45;;;2.17;;
65162;SDS011;51751;55.714;37.436;2023-05-29T04:36:09;9.93;;;2.10;;
65162;SDS011;51751;55.714;37.436;2023-05-29T04:38:39;6.13;;;1.75;;
65162;SDS011;51751;55.714;37.436;2023-05-29T04:41:11;9.10;;;1.75;;
65162;SDS011;51751;55.714;37.436;2023-05-29T04:43:38;7.03;;;2.20;;
65162;SDS011;51751;55.714;37.436;2023-05-29T04:46:05;12.32;;;2.60;;
65162;SDS011;51751;55.714;37.436;2023-05-29T04:48:37;8.00;;;2.28;;
65162;SDS011;51751;55.714;37.436;2023-05-29T04:51:06;5.88;;;1.80;;
65162;SDS011;51751;55.714;37.436;2023-05-29T04:53:39;7.55;;;2.67;;
65162;SDS011;51751;55.714;37.436;2023-05-29T04:56:07;6.57;;;2.22;;
65162;SDS011;51751;55.714;37.436;2023-05-29T04:58:37;3.05;;;1.70;;
65162;SDS011;51751;55.714;37.436;2023-05-29T05:01:03;3.30;;;1.50;;
65162;SDS011;51751;55.714;37.436;2023-05-29T05:03:31;7.32;;;1.83;;
65162;SDS011;51751;55.714;37.436;2023-05-29T05:06:02;7.55;;;1.70;;
65162;SDS011;51751;55.714;37.436;2023-05-29T05:08:30;12.13;;;1.98;;
65162;SDS011;51751;55.714;37.436;2023-05-29T05:10:56;10.70;;;1.80;;
65162;SDS011;51751;55.714;37.436;2023-05-29T05:13:26;6.28;;;1.80;;
65162;SDS011;51751;55.714;37.436;2023-05-29T05:15:53;6.75;;;1.83;;
65162;SDS011;51751;55.714;37.436;2023-05-29T05:18:20;4.95;;;1.80;;
65162;SDS011;51751;55.714;37.436;2023-05-29T05:20:58;7.45;;;1.70;;
65162;SDS011;51751;55.714;37.436;2023-05-29T05:23:23;3.38;;;1.80;;
65162;SDS011;51751;55.714;37.436;2023-05-29T05:25:53;2.75;;;1.70;;
65162;SDS011;51751;55.714;37.436;2023-05-29T05:28:22;6.05;;;2.03;;
65162;SDS011;51751;55.714;37.436;2023-05-29T05:30:48;7.75;;;1.70;;
65162;SDS011;51751;55.714;37.436;2023-05-29T05:33:14;4.47;;;1.90;;
65162;SDS011;51751;55.714;37.436;2023-05-29T05:35:40;3.85;;;1.80;;
65162;SDS011;51751;55.714;37.436;2023-05-29T05:38:07;5.20;;;1.60;;
65162;SDS011;51751;55.714;37.436;2023-05-29T05:40:39;6.07;;;1.40;;
65162;SDS011;51751;55.714;37.436;2023-05-29T05:43:23;4.20;;;2.00;;
65162;SDS011;51751;55.714;37.436;2023-05-29T05:46:01;3.47;;;1.60;;
65162;SDS011;51751;55.714;37.436;2023-05-29T05:48:29;3.10;;;1.45;;
65162;SDS011;51751;55.714;37.436;2023-05-29T05:50:55;5.00;;;1.40;;
65162;SDS011;51751;55.714;37.436;2023-05-29T05:53:22;9.10;;;1.80;;
65162;SDS011;51751;55.714;37.436;2023-05-29T05:55:50;2.95;;;1.50;;
65162;SDS011;51751;55.714;37.436;2023-05-29T05:58:17;5.30;;;2.35;;
65162;SDS011;51751;55.714;37.436;2023-05-29T06:00:43;2.35;;;1.50;;
65162;SDS011;51751;55.714;37.436;2023-05-29T06:03:09;5.50;;;1.63;;
65162;SDS011;51751;55.714;37.436;2023-05-29T06:05:51;3.42;;;1.58;;
65162;SDS011;51751;55.714;37.436;2023-05-29T06:08:18;1.70;;;1.23;;
65162;SDS011;51751;55.714;37.436;2023-05-29T06:10:44;1.52;;;1.13;;
65162;SDS011;51751;55.714;37.436;2023-05-29T06:13:13;4.35;;;1.20;;
65162;SDS011;51751;55.714;37.436;2023-05-29T06:15:46;4.63;;;0.90;;
65162;SDS011;51751;55.714;37.436;2023-05-29T06:18:13;1.95;;;1.20;;
65162;SDS011;51751;55.714;37.436;2023-05-29T06:20:39;3.30;;;1.10;;
65162;SDS011;51751;55.714;37.436;2023-05-29T06:23:10;1.98;;;1.00;;
65162;SDS011;51751;55.714;37.436;2023-05-29T06:25:37;3.72;;;1.05;;
65162;SDS011;51751;55.714;37.436;2023-05-29T06:28:05;2.40;;;1.30;;
65162;SDS011;51751;55.714;37.436;2023-05-29T06:30:38;1.80;;;1.20;;
65162;SDS011;51751;55.714;37.436;2023-05-29T06:33:07;3.00;;;1.20;;
65162;SDS011;51751;55.714;37.436;2023-05-29T06:35:46;2.35;;;1.00;;
65162;SDS011;51751;55.714;37.436;2023-05-29T06:38:11;6.32;;;1.00;;
65162;SDS011;51751;55.714;37.436;2023-05-29T06:40:41;2.40;;;0.98;;
65162;SDS011;51751;55.714;37.436;2023-05-29T06:43:07;0.85;;;0.85;;
65162;SDS011;51751;55.714;37.436;2023-05-29T06:45:38;1.65;;;0.90;;
65162;SDS011;51751;55.714;37.436;2023-05-29T06:48:05;5.57;;;1.42;;
65162;SDS011;51751;55.714;37.436;2023-05-29T06:50:31;1.15;;;0.82;;
65162;SDS011;51751;55.714;37.436;2023-05-29T06:53:04;2.40;;;0.98;;
65162;SDS011;51751;55.714;37.436;2023-05-29T06:55:46;3.10;;;1.05;;
65162;SDS011;51751;55.714;37.436;2023-05-29T06:58:12;2.03;;;1.08;;
65162;SDS011;51751;55.714;37.436;2023-05-29T07:00:38;4.45;;;1.00;;
65162;SDS011;51751;55.714;37.436;2023-05-29T07:03:20;5.80;;;1.25;;
65162;SDS011;51751;55.714;37.436;2023-05-29T07:05:47;1.60;;;0.95;;
65162;SDS011;51751;55.714;37.436;2023-05-29T07:08:15;2.35;;;1.20;;
65162;SDS011;51751;55.714;37.436;2023-05-29T07:10:41;2.03;;;0.90;;
65162;SDS011;51751;55.714;37.436;2023-05-29T07:13:07;1.23;;;1.10;;
65162;SDS011;51751;55.714;37.436;2023-05-29T07:15:34;4.65;;;1.13;;
65162;SDS011;51751;55.714;37.436;2023-05-29T07:18:06;1.17;;;1.02;;
65162;SDS011;51751;55.714;37.436;2023-05-29T07:20:33;1.60;;;1.00;;
65162;SDS011;51751;55.714;37.436;2023-05-29T07:22:59;1.63;;;1.00;;
65162;SDS011;51751;55.714;37.436;2023-05-29T07:25:25;1.45;;;1.10;;
65162;SDS011;51751;55.714;37.436;2023-05-29T07:27:51;1.20;;;1.10;;
65162;SDS011;51751;55.714;37.436;2023-05-29T07:30:18;1.35;;;0.95;;
65162;SDS011;51751;55.714;37.436;2023-05-29T07:32:45;1.40;;;0.88;;
65162;SDS011;51751;55.714;37.436;2023-05-29T07:35:29;1.88;;;1.20;;
65162;SDS011;51751;55.714;37.436;2023-05-29T07:37:58;1.65;;;1.10;;
65162;SDS011;51751;55.714;37.436;2023-05-29T07:40:24;3.90;;;1.20;;
65162;SDS011;51751;55.714;37.436;2023-05-29T07:43:08;2.97;;;0.95;;
65162;SDS011;51751;55.714;37.436;2023-05-29T07:46:02;1.05;;;1.02;;
65162;SDS011;51751;55.714;37.436;2023-05-29T07:48:31;1.88;;;1.02;;
65162;SDS011;51751;55.714;37.436;2023-05-29T07:50:58;1.13;;;1.00;;
65162;SDS011;51751;55.714;37.436;2023-05-29T07:53:27;2.90;;;1.05;;
65162;SDS011;51751;55.714;37.436;2023-05-29T07:55:59;1.25;;;1.10;;
65162;SDS011;51751;55.714;37.436;2023-05-29T07:58:34;1.45;;;1.00;;
65162;SDS011;51751;55.714;37.436;2023-05-29T08:01:03;7.93;;;1.23;;
65162;SDS011;51751;55.714;37.436;2023-05-29T08:03:33;8.95;;;1.60;;
65162;SDS011;51751;55.714;37.436;2023-05-29T08:06:05;6.88;;;1.20;;
65162;SDS011;51751;55.714;37.436;2023-05-29T08:08:32;5.65;;;1.30;;
65162;SDS011;51751;55.714;37.436;2023-05-29T08:10:58;8.07;;;1.30;;
65162;SDS011;51751;55.714;37.436;2023-05-29T08:13:29;4.68;;;1.23;;
65162;SDS011;51751;55.714;37.436;2023-05-29T08:16:00;2.60;;;1.00;;
65162;SDS011;51751;55.714;37.436;2023-05-29T08:18:26;3.88;;;0.90;;
65162;SDS011;51751;55.714;37.436;2023-05-29T08:20:52;1.23;;;1.00;;
65162;SDS011;51751;55.714;37.436;2023-05-29T08:23:18;5.35;;;1.42;;
65162;SDS011;51751;55.714;37.436;2023-05-29T08:25:44;2.95;;;1.30;;
65162;SDS011;51751;55.714;37.436;2023-05-29T08:28:10;3.60;;;1.30;;
65162;SDS011;51751;55.714;37.436;2023-05-29T08:30:36;8.90;;;1.38;;
65162;SDS011;51751;55.714;37.436;2023-05-29T08:33:02;4.20;;;1.25;;
65162;SDS011;51751;55.714;37.436;2023-05-29T08:35:29;4.18;;;1.30;;
65162;SDS011;51751;55.714;37.436;2023-05-29T08:37:55;1.90;;;1.20;;
65162;SDS011;51751;55.714;37.436;2023-05-29T08:40:24;2.15;;;1.17;;
65162;SDS011;51751;55.714;37.436;2023-05-29T08:42:56;2.47;;;1.13;;
65162;SDS011;51751;55.714;37.436;2023-05-29T08:45:45;4.68;;;1.50;;
65162;SDS011;51751;55.714;37.436;2023-05-29T08:48:12;8.95;;;2.28;;
65162;SDS011;51751;55.714;37.436;2023-05-29T08:50:43;4.95;;;1.20;;
65162;SDS011;51751;55.714;37.436;2023-05-29T08:53:13;2.83;;;1.10;;
65162;SDS011;51751;55.714;37.436;2023-05-29T08:55:40;4.95;;;1.20;;
65162;SDS011;51751;55.714;37.436;2023-05-29T08:58:06;2.95;;;1.60;;
65162;SDS011;51751;55.714;37.436;2023-05-29T09:00:36;4.32;;;1.45;;
65162;SDS011;51751;55.714;37.436;2023-05-29T09:03:02;2.58;;;1.30;;
65162;SDS011;51751;55.714;37.436;2023-05-29T09:05:28;5.45;;;1.38;;
65162;SDS011;51751;55.714;37.436;2023-05-29T09:07:56;3.72;;;1.35;;
65162;SDS011;51751;55.714;37.436;2023-05-29T09:10:22;3.78;;;1.55;;
65162;SDS011;51751;55.714;37.436;2023-05-29T09:12:48;4.70;;;1.75;;
65162;SDS011;51751;55.714;37.436;2023-05-29T09:15:17;2.75;;;1.73;;
65162;SDS011;51751;55.714;37.436;2023-05-29T09:17:54;1.83;;;1.20;;
65162;SDS011;51751;55.714;37.436;2023-05-29T09:20:41;2.10;;;1.27;;
65162;SDS011;51751;55.714;37.436;2023-05-29T09:23:10;1.38;;;1.10;;
65162;SDS011;51751;55.714;37.436;2023-05-29T09:25:39;6.82;;;1.60;;
65162;SDS011;51751;55.714;37.436;2023-05-29T09:28:10;4.40;;;1.70;;
65162;SDS011;51751;55.714;37.436;2023-05-29T09:30:37;2.35;;;1.30;;
65162;SDS011;51751;55.714;37.436;2023-05-29T09:33:08;6.47;;;1.40;;
65162;SDS011;51751;55.714;37.436;2023-05-29T09:35:38;4.85;;;1.30;;
65162;SDS011;51751;55.714;37.436;2023-05-29T09:38:27;1.70;;;1.20;;
65162;SDS011;51751;55.714;37.436;2023-05-29T09:40:55;2.55;;;1.10;;
65162;SDS011;51751;55.714;37.436;2023-05-29T09:43:30;6.80;;;1.50;;
65162;SDS011;51751;55.714;37.436;2023-05-29T09:45:58;3.92;;;1.45;;
65162;SDS011;51751;55.714;37.436;2023-05-29T09:48:42;3.10;;;1.10;;
65162;SDS011;51751;55.714;37.436;2023-05-29T09:51:21;1.40;;;1.15;;
65162;SDS011;51751;55.714;37.436;2023-05-29T09:53:48;4.32;;;1.48;;
65162;SDS011;51751;55.714;37.436;2023-05-29T09:56:16;6.60;;;1.60;;
65162;SDS011;51751;55.714;37.436;2023-05-29T09:58:44;8.50;;;1.13;;
65162;SDS011;51751;55.714;37.436;2023-05-29T10:01:16;2.58;;;1.17;;
65162;SDS011;51751;55.714;37.436;2023-05-29T10:03:43;4.35;;;1.60;;
65162;SDS011;51751;55.714;37.436;2023-05-29T10:06:14;5.60;;;1.55;;
65162;SDS011;51751;55.714;37.436;2023-05-29T10:08:46;7.22;;;0.90;;
65162;SDS011;51751;55.714;37.436;2023-05-29T10:11:20;3.05;;;1.25;;
65162;SDS011;51751;55.714;37.436;2023-05-29T10:13:52;3.08;;;1.33;;
65162;SDS011;51751;55.714;37.436;2023-05-29T10:16:21;3.40;;;1.30;;
65162;SDS011;51751;55.714;37.436;2023-05-29T10:18:55;3.25;;;1.30;;
65162;SDS011;51751;55.714;37.436;2023-05-29T10:21:24;2.08;;;1.30;;
65162;SDS011;51751;55.714;37.436;2023-05-29T10:23:52;1.20;;;1.10;;
65162;SDS011;51751;55.714;37.436;2023-05-29T10:26:26;3.00;;;1.40;;
65162;SDS011;51751;55.714;37.436;2023-05-29T10:29:03;2.55;;;1.90;;
65162;SDS011;51751;55.714;37.436;2023-05-29T10:31:39;1.88;;;1.17;;
65162;SDS011;51751;55.714;37.436;2023-05-29T10:37:00;6.03;;;1.55;;
65162;SDS011;51751;55.714;37.436;2023-05-29T10:39:30;3.88;;;1.25;;
65162;SDS011;51751;55.714;37.436;2023-05-29T10:42:02;1.80;;;1.55;;
65162;SDS011;51751;55.714;37.436;2023-05-29T10:45:09;3.17;;;1.37;;
65162;SDS011;51751;55.714;37.436;2023-05-29T10:47:37;5.28;;;1.30;;
65162;SDS011;51751;55.714;37.436;2023-05-29T10:50:04;2.13;;;1.20;;
65162;SDS011;51751;55.714;37.436;2023-05-29T10:52:34;4.70;;;1.17;;
65162;SDS011;51751;55.714;37.436;2023-05-29T10:55:03;2.25;;;1.38;;
65162;SDS011;51751;55.714;37.436;2023-05-29T10:57:30;6.38;;;1.33;;
65162;SDS011;51751;55.714;37.436;2023-05-29T11:00:07;1.65;;;1.30;;
65162;SDS011;51751;55.714;37.436;2023-05-29T11:02:40;2.45;;;1.30;;
65162;SDS011;51751;55.714;37.436;2023-05-29T11:05:19;1.45;;;1.20;;
65162;SDS011;51751;55.714;37.436;2023-05-29T11:07:52;3.35;;;1.30;;
65162;SDS011;51751;55.714;37.436;2023-05-29T11:13:08;3.78;;;1.30;;
65162;SDS011;51751;55.714;37.436;2023-05-29T11:15:34;3.88;;;1.38;;
65162;SDS011;51751;55.714;37.436;2023-05-29T11:18:08;4.05;;;1.27;;
65162;SDS011;51751;55.714;37.436;2023-05-29T11:20:50;5.97;;;1.60;;
65162;SDS011;51751;55.714;37.436;2023-05-29T11:23:19;3.50;;;1.38;;
65162;SDS011;51751;55.714;37.436;2023-05-29T11:25:46;3.53;;;1.30;;
65162;SDS011;51751;55.714;37.436;2023-05-29T11:28:16;3.42;;;1.38;;
65162;SDS011;51751;55.714;37.436;2023-05-29T11:30:46;2.78;;;1.30;;
65162;SDS011;51751;55.714;37.436;2023-05-29T11:33:20;3.45;;;1.25;;
65162;SDS011;51751;55.714;37.436;2023-05-29T11:35:58;3.13;;;1.30;;
65162;SDS011;51751;55.714;37.436;2023-05-29T11:38:26;1.38;;;1.02;;
65162;SDS011;51751;55.714;37.436;2023-05-29T11:40:55;4.30;;;1.13;;
65162;SDS011;51751;55.714;37.436;2023-05-29T11:43:22;5.25;;;1.40;;
65162;SDS011;51751;55.714;37.436;2023-05-29T11:45:48;5.22;;;1.65;;
65162;SDS011;51751;55.714;37.436;2023-05-29T11:48:17;4.80;;;1.30;;
65162;SDS011;51751;55.714;37.436;2023-05-29T11:50:43;2.38;;;1.20;;
65162;SDS011;51751;55.714;37.436;2023-05-29T11:53:09;5.22;;;1.63;;
65162;SDS011;51751;55.714;37.436;2023-05-29T11:55:35;5.28;;;1.42;;
65162;SDS011;51751;55.714;37.436;2023-05-29T11:58:04;3.42;;;1.35;;
65162;SDS011;51751;55.714;37.436;2023-05-29T12:00:31;3.95;;;1.10;;
65162;SDS011;51751;55.714;37.436;2023-05-29T12:02:59;2.10;;;1.10;;
65162;SDS011;51751;55.714;37.436;2023-05-29T12:05:45;7.40;;;1.98;;
65162;SDS011;51751;55.714;37.436;2023-05-29T12:08:17;10.75;;;1.55;;
65162;SDS011;51751;55.714;37.436;2023-05-29T12:10:47;3.03;;;1.20;;
65162;SDS011;51751;55.714;37.436;2023-05-29T12:13:14;2.85;;;1.20;;
65162;SDS011;51751;55.714;37.436;2023-05-29T12:15:44;5.38;;;1.30;;
65162;SDS011;51751;55.714;37.436;2023-05-29T12:18:13;7.10;;;1.30;;
65162;SDS011;51751;55.714;37.436;2023-05-29T12:20:40;4.90;;;1.50;;
65162;SDS011;51751;55.714;37.436;2023-05-29T12:23:09;1.55;;;1.20;;
65162;SDS011;51751;55.714;37.436;2023-05-29T12:25:37;3.33;;;1.40;;
65162;SDS011;51751;55.714;37.436;2023-05-29T12:28:03;4.32;;;1.50;;
65162;SDS011;51751;55.714;37.436;2023-05-29T12:30:39;1.65;;;1.20;;
65162;SDS011;51751;55.714;37.436;2023-05-29T12:33:06;7.05;;;1.23;;
65162;SDS011;51751;55.714;37.436;2023-05-29T12:35:35;1.23;;;1.13;;
65162;SDS011;51751;55.714;37.436;2023-05-29T12:38:07;3.15;;;1.60;;
65162;SDS011;51751;55.714;37.436;2023-05-29T12:40:34;9.80;;;1.65;;
65162;SDS011;51751;55.714;37.436;2023-05-29T12:43:04;4.38;;;1.67;;
65162;SDS011;51751;55.714;37.436;2023-05-29T12:45:31;3.35;;;1.50;;
65162;SDS011;51751;55.714;37.436;2023-05-29T12:48:04;2.92;;;1.27;;
65162;SDS011;51751;55.714;37.436;2023-05-29T12:50:36;4.55;;;1.15;;
65162;SDS011;51751;55.714;37.436;2023-05-29T12:53:06;4.05;;;1.35;;
65162;SDS011;51751;55.714;37.436;2023-05-29T12:55:33;3.28;;;1.33;;
65162;SDS011;51751;55.714;37.436;2023-05-29T12:58:07;4.25;;;1.50;;
65162;SDS011;51751;55.714;37.436;2023-05-29T13:00:34;4.47;;;1.38;;
65162;SDS011;51751;55.714;37.436;2023-05-29T13:03:04;1.65;;;1.52;;
65162;SDS011;51751;55.714;37.436;2023-05-29T13:05:31;5.00;;;1.65;;
65162;SDS011;51751;55.714;37.436;2023-05-29T13:07:58;2.50;;;1.40;;
65162;SDS011;51751;55.714;37.436;2023-05-29T13:10:25;6.18;;;1.30;;
65162;SDS011;51751;55.714;37.436;2023-05-29T13:12:52;3.55;;;1.38;;
65162;SDS011;51751;55.714;37.436;2023-05-29T13:15:27;3.08;;;1.50;;
65162;SDS011;51751;55.714;37.436;2023-05-29T13:17:56;1.83;;;1.23;;
65162;SDS011;51751;55.714;37.436;2023-05-29T13:20:22;3.00;;;1.20;;
65162;SDS011;51751;55.714;37.436;2023-05-29T13:22:48;5.70;;;1.88;;
65162;SDS011;51751;55.714;37.436;2023-05-29T13:25:15;4.78;;;1.40;;
65162;SDS011;51751;55.714;37.436;2023-05-29T13:27:44;1.85;;;1.30;;
65162;SDS011;51751;55.714;37.436;2023-05-29T13:30:14;3.85;;;1.20;;
65162;SDS011;51751;55.714;37.436;2023-05-29T13:32:40;6.63;;;1.70;;
65162;SDS011;51751;55.714;37.436;2023-05-29T13:35:09;3.50;;;1.70;;
65162;SDS011;51751;55.714;37.436;2023-05-29T13:37:35;2.58;;;1.40;;
65162;SDS011;51751;55.714;37.436;2023-05-29T13:40:02;3.92;;;1.50;;
65162;SDS011;51751;55.714;37.436;2023-05-29T13:42:31;4.05;;;1.60;;
65162;SDS011;51751;55.714;37.436;2023-05-29T13:45:00;2.17;;;1.30;;
65162;SDS011;51751;55.714;37.436;2023-05-29T13:47:35;2.30;;;1.48;;
65162;SDS011;51751;55.714;37.436;2023-05-29T13:50:02;4.35;;;1.60;;
65162;SDS011;51751;55.714;37.436;2023-05-29T13:52:32;3.78;;;1.52;;
65162;SDS011;51751;55.714;37.436;2023-05-29T13:54:58;5.30;;;1.75;;
65162;SDS011;51751;55.714;37.436;2023-05-29T13:57:48;1.77;;;1.17;;
65162;SDS011;51751;55.714;37.436;2023-05-29T14:00:14;3.38;;;1.40;;
65162;SDS011;51751;55.714;37.436;2023-05-29T14:02:41;2.55;;;1.40;;
65162;SDS011;51751;55.714;37.436;2023-05-29T14:05:26;3.53;;;1.40;;
65162;SDS011;51751;55.714;37.436;2023-05-29T14:07:52;9.30;;;1.60;;
65162;SDS011;51751;55.714;37.436;2023-05-29T14:10:18;3.47;;;1.65;;
65162;SDS011;51751;55.714;37.436;2023-05-29T14:12:45;4.50;;;1.42;;
65162;SDS011;51751;55.714;37.436;2023-05-29T14:15:11;4.13;;;1.30;;
65162;SDS011;51751;55.714;37.436;2023-05-29T14:17:37;11.07;;;3.03;;
65162;SDS011;51751;55.714;37.436;2023-05-29T14:20:03;6.07;;;1.27;;
65162;SDS011;51751;55.714;37.436;2023-05-29T14:22:34;5.25;;;1.40;;
65162;SDS011;51751;55.714;37.436;2023-05-29T14:25:00;3.50;;;1.30;;
65162;SDS011;51751;55.714;37.436;2023-05-29T14:27:30;4.15;;;1.30;;
65162;SDS011;51751;55.714;37.436;2023-05-29T14:29:56;4.03;;;1.63;;
65162;SDS011;51751;55.714;37.436;2023-05-29T14:32:22;4.53;;;1.45;;
65162;SDS011;51751;55.714;37.436;2023-05-29T14:34:49;2.75;;;1.30;;
65162;SDS011;51751;55.714;37.436;2023-05-29T14:37:19;2.00;;;1.30;;
65162;SDS011;51751;55.714;37.436;2023-05-29T14:39:45;7.93;;;1.60;;
65162;SDS011;51751;55.714;37.436;2023-05-29T14:42:11;8.18;;;1.98;;
65162;SDS011;51751;55.714;37.436;2023-05-29T14:44:39;7.13;;;2.30;;
65162;SDS011;51751;55.714;37.436;2023-05-29T14:47:08;1.85;;;1.27;;
65162;SDS011;51751;55.714;37.436;2023-05-29T14:49:54;3.00;;;1.40;;
65162;SDS011;51751;55.714;37.436;2023-05-29T14:52:20;4.18;;;1.17;;
65162;SDS011;51751;55.714;37.436;2023-05-29T14:54:46;2.70;;;1.30;;
65162;SDS011;51751;55.714;37.436;2023-05-29T14:57:12;2.22;;;1.30;;
65162;SDS011;51751;55.714;37.436;2023-05-29T14:59:38;5.68;;;1.40;;
65162;SDS011;51751;55.714;37.436;2023-05-29T15:02:05;3.63;;;1.30;;